Summary for KCOLONGM6

Ute Creek Golf Course, Longmont, CO 80504
Join the PWSweather.com Network
View data in metric units
Latest Conditions
Updated 3:20:46 AM MST Thursday, Mar 5, 2015
Data Currently Today's Max Today's Min Today's Average
Temperature 0.3°F-17.6°C 4.5°F-15.3°C 0.0°F-17.8°C 1.5°F-16.9°C
Dew Point -3.1°F-19.5°C 0.5°F-17.5°C -4.2°F-20.1°C -2.4°F-19.1°C
Winds Calm Calm 0.9 mph S1.4 kmh S CalmCalm 0.1 mph0.2 kmh
Wind Gusts -- 4.0 mph6.4 kmh -- 0.2 mph0.3 kmh
Humidity 85% 86% 78% 83%
Pressure 30.48 in1032.2 mb 30.50 in1032.8 mb 30.48 in1032.2 mb 30.50 in1032.8 mb
Precipitation 0.00 in0.0 mm - - 0.00 in0.0 mm
Trends
 
Station Profile
Ute Creek Golf CourseLongmont, CO 80504

Lat: 40.194, Lon: -105.067
Elevation: 5014
Station Type: Davis Vantage Vue

Detailed Summary for Thu, Mar 05, 2015
Hour (MST) Temperature Dew Point Humidity Winds Wind Gusts Pressure Precip Precip Rate Daily Precip Total
03:20 AM 0.3°F-17.6°C -3.1°F-19.5°C 85% Calm Calm -- 30.48 in1032.2 mb 0.00 in0.0 mm 0.00 in/hr0.0 mm/hr 0.00 in0.0 mm
03:19 AM 0.1°F-17.7°C -3.3°F-19.6°C 85% Calm Calm -- 30.48 in1032.2 mb 0.00 in0.0 mm 0.00 in/hr0.0 mm/hr 0.00 in0.0 mm
03:18 AM 0.1°F-17.7°C -3.3°F-19.6°C 85% Calm Calm -- 30.48 in1032.2 mb 0.00 in0.0 mm 0.00 in/hr0.0 mm/hr 0.00 in0.0 mm
03:17 AM 0.0°F-17.8°C -3.5°F-19.7°C 85% Calm Calm -- 30.48 in1032.2 mb 0.00 in0.0 mm 0.00 in/hr0.0 mm/hr 0.00 in0.0 mm
03:16 AM 0.0°F-17.8°C -3.6°F-19.8°C 84% Calm Calm -- 30.48 in1032.2 mb 0.00 in0.0 mm 0.00 in/hr0.0 mm/hr 0.00 in0.0 mm
03:15 AM 0.0°F-17.8°C -3.6°F-19.8°C 84% Calm Calm -- 30.48 in1032.2 mb 0.00 in0.0 mm 0.00 in/hr0.0 mm/hr 0.00 in0.0 mm
03:14 AM 0.0°F-17.8°C -3.6°F-19.8°C 84% Calm Calm -- 30.49 in1032.5 mb 0.00 in0.0 mm 0.00 in/hr0.0 mm/hr 0.00 in0.0 mm
03:13 AM 0.0°F-17.8°C -3.6°F-19.8°C 84% Calm Calm -- 30.49 in1032.5 mb 0.00 in0.0 mm 0.00 in/hr0.0 mm/hr 0.00 in0.0 mm
03:12 AM 0.1°F-17.7°C -3.5°F-19.7°C 84% Calm Calm -- 30.49 in1032.5 mb 0.00 in0.0 mm 0.00 in/hr0.0 mm/hr 0.00 in0.0 mm
03:11 AM 0.1°F-17.7°C -3.3°F-19.6°C 85% Calm Calm -- 30.49 in1032.5 mb 0.00 in0.0 mm 0.00 in/hr0.0 mm/hr 0.00 in0.0 mm
03:10 AM 0.1°F-17.7°C -3.3°F-19.6°C 85% Calm Calm 0.9 mph1.4 kmh 30.49 in1032.5 mb 0.00 in0.0 mm 0.00 in/hr0.0 mm/hr 0.00 in0.0 mm
03:09 AM 0.1°F-17.7°C -3.3°F-19.6°C 85% Calm Calm -- 30.49 in1032.5 mb 0.00 in0.0 mm 0.00 in/hr0.0 mm/hr 0.00 in0.0 mm
03:08 AM 0.1°F-17.7°C -3.3°F-19.6°C 85% Calm Calm -- 30.49 in1032.5 mb 0.00 in0.0 mm 0.00 in/hr0.0 mm/hr 0.00 in0.0 mm
03:07 AM 0.0°F-17.8°C -3.6°F-19.8°C 84% Calm Calm -- 30.49 in1032.5 mb 0.00 in0.0 mm 0.00 in/hr0.0 mm/hr 0.00 in0.0 mm
03:06 AM 0.1°F-17.7°C -3.8°F-19.9°C 83% Calm Calm -- 30.49 in1032.5 mb 0.00 in0.0 mm 0.00 in/hr0.0 mm/hr 0.00 in0.0 mm
03:05 AM 0.1°F-17.7°C -3.8°F-19.9°C 83% Calm Calm -- 30.49 in1032.5 mb 0.00 in0.0 mm 0.00 in/hr0.0 mm/hr 0.00 in0.0 mm
03:04 AM 0.3°F-17.6°C -3.3°F-19.6°C 84% Calm Calm -- 30.49 in1032.5 mb 0.00 in0.0 mm 0.00 in/hr0.0 mm/hr 0.00 in0.0 mm
03:03 AM 0.3°F-17.6°C -3.1°F-19.5°C 85% Calm Calm -- 30.49 in1032.5 mb 0.00 in0.0 mm 0.00 in/hr0.0 mm/hr 0.00 in0.0 mm
03:02 AM 0.3°F-17.6°C -2.9°F-19.4°C 86% Calm Calm -- 30.49 in1032.5 mb 0.00 in0.0 mm 0.00 in/hr0.0 mm/hr 0.00 in0.0 mm
03:01 AM 0.3°F-17.6°C -2.9°F-19.4°C 86% Calm Calm -- 30.49 in1032.5 mb 0.00 in0.0 mm 0.00 in/hr0.0 mm/hr 0.00 in0.0 mm
03:00 AM 0.3°F-17.6°C -2.9°F-19.4°C 86% Calm Calm -- 30.49 in1032.5 mb 0.00 in0.0 mm 0.00 in/hr0.0 mm/hr 0.00 in0.0 mm
02:59 AM 0.1°F-17.7°C -3.3°F-19.6°C 85% Calm Calm -- 30.50 in1032.8 mb 0.00 in0.0 mm 0.00 in/hr0.0 mm/hr 0.00 in0.0 mm
02:58 AM 0.1°F-17.7°C -3.5°F-19.7°C 84% Calm Calm -- 30.50 in1032.8 mb 0.00 in0.0 mm 0.00 in/hr0.0 mm/hr 0.00 in0.0 mm
02:57 AM 0.1°F-17.7°C -3.5°F-19.7°C 84% Calm Calm -- 30.50 in1032.8 mb 0.00 in0.0 mm 0.00 in/hr0.0 mm/hr 0.00 in0.0 mm
02:56 AM 0.1°F-17.7°C -3.5°F-19.7°C 84% Calm Calm -- 30.50 in1032.8 mb 0.00 in0.0 mm 0.00 in/hr0.0 mm/hr 0.00 in0.0 mm
02:55 AM 0.1°F-17.7°C -3.8°F-19.9°C 83% Calm Calm -- 30.50 in1032.8 mb 0.00 in0.0 mm 0.00 in/hr0.0 mm/hr 0.00 in0.0 mm
02:54 AM 0.1°F-17.7°C -3.5°F-19.7°C 84% Calm Calm -- 30.50 in1032.8 mb 0.00 in0.0 mm 0.00 in/hr0.0 mm/hr 0.00 in0.0 mm
02:53 AM 0.1°F-17.7°C -3.5°F-19.7°C 84% Calm Calm -- 30.50 in1032.8 mb 0.00 in0.0 mm 0.00 in/hr0.0 mm/hr 0.00 in0.0 mm
02:52 AM 0.3°F-17.6°C -3.3°F-19.6°C 84% Calm Calm -- 30.50 in1032.8 mb 0.00 in0.0 mm 0.00 in/hr0.0 mm/hr 0.00 in0.0 mm
02:51 AM 0.3°F-17.6°C -3.3°F-19.6°C 84% Calm Calm -- 30.50 in1032.8 mb 0.00 in0.0 mm 0.00 in/hr0.0 mm/hr 0.00 in0.0 mm
02:50 AM 0.3°F-17.6°C -3.3°F-19.6°C 84% Calm Calm -- 30.50 in1032.8 mb 0.00 in0.0 mm 0.00 in/hr0.0 mm/hr 0.00 in0.0 mm
02:49 AM 0.3°F-17.6°C -3.6°F-19.8°C 83% Calm Calm -- 30.50 in1032.8 mb 0.00 in0.0 mm 0.00 in/hr0.0 mm/hr 0.00 in0.0 mm
02:48 AM 0.3°F-17.6°C -3.6°F-19.8°C 83% Calm Calm -- 30.50 in1032.8 mb 0.00 in0.0 mm 0.00 in/hr0.0 mm/hr 0.00 in0.0 mm
02:47 AM 0.3°F-17.6°C -3.6°F-19.8°C 83% Calm Calm -- 30.50 in1032.8 mb 0.00 in0.0 mm 0.00 in/hr0.0 mm/hr 0.00 in0.0 mm
02:46 AM 0.3°F-17.6°C -3.6°F-19.8°C 83% Calm Calm -- 30.50 in1032.8 mb 0.00 in0.0 mm 0.00 in/hr0.0 mm/hr 0.00 in0.0 mm
02:45 AM 0.3°F-17.6°C -3.3°F-19.6°C 84% Calm Calm -- 30.50 in1032.8 mb 0.00 in0.0 mm 0.00 in/hr0.0 mm/hr 0.00 in0.0 mm
02:44 AM 0.5°F-17.5°C -3.1°F-19.5°C 84% Calm Calm -- 30.50 in1032.8 mb 0.00 in0.0 mm 0.00 in/hr0.0 mm/hr 0.00 in0.0 mm
02:43 AM 0.5°F-17.5°C -3.1°F-19.5°C 84% Calm Calm -- 30.50 in1032.8 mb 0.00 in0.0 mm 0.00 in/hr0.0 mm/hr 0.00 in0.0 mm
02:42 AM 0.3°F-17.6°C -3.3°F-19.6°C 84% Calm Calm -- 30.50 in1032.8 mb 0.00 in0.0 mm 0.00 in/hr0.0 mm/hr 0.00 in0.0 mm
02:41 AM 0.3°F-17.6°C -3.6°F-19.8°C 83% Calm Calm -- 30.50 in1032.8 mb 0.00 in0.0 mm 0.00 in/hr0.0 mm/hr 0.00 in0.0 mm
02:40 AM 0.3°F-17.6°C -3.8°F-19.9°C 82% Calm Calm -- 30.50 in1032.8 mb 0.00 in0.0 mm 0.00 in/hr0.0 mm/hr 0.00 in0.0 mm
02:39 AM 0.3°F-17.6°C -3.8°F-19.9°C 82% Calm Calm -- 30.50 in1032.8 mb 0.00 in0.0 mm 0.00 in/hr0.0 mm/hr 0.00 in0.0 mm
02:38 AM 0.3°F-17.6°C -3.8°F-19.9°C 82% Calm Calm -- 30.50 in1032.8 mb 0.00 in0.0 mm 0.00 in/hr0.0 mm/hr 0.00 in0.0 mm
02:37 AM 0.3°F-17.6°C -3.8°F-19.9°C 82% Calm Calm 0.9 mph1.4 kmh 30.50 in1032.8 mb 0.00 in0.0 mm 0.00 in/hr0.0 mm/hr 0.00 in0.0 mm
02:36 AM 0.3°F-17.6°C -4.2°F-20.1°C 81% Calm Calm 0.9 mph1.4 kmh 30.50 in1032.8 mb 0.00 in0.0 mm 0.00 in/hr0.0 mm/hr 0.00 in0.0 mm
02:35 AM 0.7°F-17.4°C -3.8°F-19.9°C 81% Calm Calm -- 30.50 in1032.8 mb 0.00 in0.0 mm 0.00 in/hr0.0 mm/hr 0.00 in0.0 mm
02:34 AM 0.7°F-17.4°C -3.5°F-19.7°C 82% Calm Calm -- 30.50 in1032.8 mb 0.00 in0.0 mm 0.00 in/hr0.0 mm/hr 0.00 in0.0 mm
02:33 AM 0.7°F-17.4°C -3.3°F-19.6°C 83% Calm Calm 0.9 mph1.4 kmh 30.50 in1032.8 mb 0.00 in0.0 mm 0.00 in/hr0.0 mm/hr 0.00 in0.0 mm
02:32 AM 0.7°F-17.4°C -3.3°F-19.6°C 83% Calm Calm 0.9 mph1.4 kmh 30.50 in1032.8 mb 0.00 in0.0 mm 0.00 in/hr0.0 mm/hr 0.00 in0.0 mm
02:31 AM 0.7°F-17.4°C -3.5°F-19.7°C 82% Calm Calm -- 30.50 in1032.8 mb 0.00 in0.0 mm 0.00 in/hr0.0 mm/hr 0.00 in0.0 mm
02:30 AM 0.7°F-17.4°C -3.8°F-19.9°C 81% Calm Calm -- 30.50 in1032.8 mb 0.00 in0.0 mm 0.00 in/hr0.0 mm/hr 0.00 in0.0 mm
02:29 AM 0.7°F-17.4°C -4.0°F-20.0°C 80% Calm Calm -- 30.50 in1032.8 mb 0.00 in0.0 mm 0.00 in/hr0.0 mm/hr 0.00 in0.0 mm
02:28 AM 0.7°F-17.4°C -4.0°F-20.0°C 80% Calm Calm -- 30.50 in1032.8 mb 0.00 in0.0 mm 0.00 in/hr0.0 mm/hr 0.00 in0.0 mm
02:27 AM 0.9°F-17.3°C -3.8°F-19.9°C 80% Calm Calm -- 30.50 in1032.8 mb 0.00 in0.0 mm 0.00 in/hr0.0 mm/hr 0.00 in0.0 mm
02:26 AM 1.0°F-17.2°C -3.6°F-19.8°C 80% Calm Calm -- 30.50 in1032.8 mb 0.00 in0.0 mm 0.00 in/hr0.0 mm/hr 0.00 in0.0 mm
02:25 AM 1.2°F-17.1°C -3.8°F-19.9°C 79% Calm Calm -- 30.50 in1032.8 mb 0.00 in0.0 mm 0.00 in/hr0.0 mm/hr 0.00 in0.0 mm
02:24 AM 1.4°F-17.0°C -3.3°F-19.6°C 80% Calm Calm -- 30.50 in1032.8 mb 0.00 in0.0 mm 0.00 in/hr0.0 mm/hr 0.00 in0.0 mm
02:23 AM 1.6°F-16.9°C -2.9°F-19.4°C 81% Calm Calm -- 30.50 in1032.8 mb 0.00 in0.0 mm 0.00 in/hr0.0 mm/hr 0.00 in0.0 mm
02:22 AM 1.8°F-16.8°C -2.4°F-19.1°C 82% Calm Calm -- 30.50 in1032.8 mb 0.00 in0.0 mm 0.00 in/hr0.0 mm/hr 0.00 in0.0 mm
02:21 AM 1.9°F-16.7°C -2.2°F-19.0°C 82% Calm Calm -- 30.50 in1032.8 mb 0.00 in0.0 mm 0.00 in/hr0.0 mm/hr 0.00 in0.0 mm
02:20 AM 1.9°F-16.7°C -2.0°F-18.9°C 83% Calm Calm -- 30.50 in1032.8 mb 0.00 in0.0 mm 0.00 in/hr0.0 mm/hr 0.00 in0.0 mm
02:19 AM 1.9°F-16.7°C -2.2°F-19.0°C 82% Calm Calm -- 30.50 in1032.8 mb 0.00 in0.0 mm 0.00 in/hr0.0 mm/hr 0.00 in0.0 mm
02:18 AM 1.9°F-16.7°C -2.2°F-19.0°C 82% Calm Calm -- 30.50 in1032.8 mb 0.00 in0.0 mm 0.00 in/hr0.0 mm/hr 0.00 in0.0 mm
02:17 AM 1.9°F-16.7°C -2.6°F-19.2°C 81% Calm Calm -- 30.50 in1032.8 mb 0.00 in0.0 mm 0.00 in/hr0.0 mm/hr 0.00 in0.0 mm
02:16 AM 2.1°F-16.6°C -2.4°F-19.1°C 81% Calm Calm -- 30.50 in1032.8 mb 0.00 in0.0 mm 0.00 in/hr0.0 mm/hr 0.00 in0.0 mm
02:15 AM 2.1°F-16.6°C -2.4°F-19.1°C 81% Calm Calm -- 30.50 in1032.8 mb 0.00 in0.0 mm 0.00 in/hr0.0 mm/hr 0.00 in0.0 mm
02:14 AM 2.3°F-16.5°C -2.2°F-19.0°C 81% Calm Calm -- 30.50 in1032.8 mb 0.00 in0.0 mm 0.00 in/hr0.0 mm/hr 0.00 in0.0 mm
02:13 AM 2.5°F-16.4°C -1.8°F-18.8°C 82% Calm Calm -- 30.50 in1032.8 mb 0.00 in0.0 mm 0.00 in/hr0.0 mm/hr 0.00 in0.0 mm
02:12 AM 2.5°F-16.4°C -1.8°F-18.8°C 82% Calm Calm -- 30.50 in1032.8 mb 0.00 in0.0 mm 0.00 in/hr0.0 mm/hr 0.00 in0.0 mm
02:11 AM 2.7°F-16.3°C -1.1°F-18.4°C 84% Calm Calm -- 30.50 in1032.8 mb 0.00 in0.0 mm 0.00 in/hr0.0 mm/hr 0.00 in0.0 mm
02:10 AM 2.7°F-16.3°C -0.8°F-18.2°C 85% Calm Calm 0.9 mph1.4 kmh 30.50 in1032.8 mb 0.00 in0.0 mm 0.00 in/hr0.0 mm/hr 0.00 in0.0 mm
02:09 AM 2.7°F-16.3°C -0.6°F-18.1°C 86% Calm Calm 0.9 mph1.4 kmh 30.50 in1032.8 mb 0.00 in0.0 mm 0.00 in/hr0.0 mm/hr 0.00 in0.0 mm
02:08 AM 2.5°F-16.4°C -0.8°F-18.2°C 86% Calm Calm 0.9 mph1.4 kmh 30.50 in1032.8 mb 0.00 in0.0 mm 0.00 in/hr0.0 mm/hr 0.00 in0.0 mm
02:07 AM 2.5°F-16.4°C -0.8°F-18.2°C 86% Calm Calm -- 30.50 in1032.8 mb 0.00 in0.0 mm 0.00 in/hr0.0 mm/hr 0.00 in0.0 mm
02:06 AM 2.1°F-16.6°C -1.1°F-18.4°C 86% Calm Calm -- 30.50 in1032.8 mb 0.00 in0.0 mm 0.00 in/hr0.0 mm/hr 0.00 in0.0 mm
02:05 AM 2.1°F-16.6°C -1.1°F-18.4°C 86% Calm Calm -- 30.50 in1032.8 mb 0.00 in0.0 mm 0.00 in/hr0.0 mm/hr 0.00 in0.0 mm
02:04 AM 1.9°F-16.7°C -1.3°F-18.5°C 86% Calm Calm -- 30.50 in1032.8 mb 0.00 in0.0 mm 0.00 in/hr0.0 mm/hr 0.00 in0.0 mm
02:03 AM 1.8°F-16.8°C -1.5°F-18.6°C 86% Calm Calm -- 30.50 in1032.8 mb 0.00 in0.0 mm 0.00 in/hr0.0 mm/hr 0.00 in0.0 mm
02:02 AM 1.6°F-16.9°C -1.8°F-18.8°C 85% Calm Calm -- 30.50 in1032.8 mb 0.00 in0.0 mm 0.00 in/hr0.0 mm/hr 0.00 in0.0 mm
02:01 AM 1.4°F-17.0°C -2.0°F-18.9°C 85% Calm Calm -- 30.50 in1032.8 mb 0.00 in0.0 mm 0.00 in/hr0.0 mm/hr 0.00 in0.0 mm
02:00 AM 1.4°F-17.0°C -2.0°F-18.9°C 85% Calm Calm -- 30.50 in1032.8 mb 0.00 in0.0 mm 0.00 in/hr0.0 mm/hr 0.00 in0.0 mm
01:59 AM 1.2°F-17.1°C -2.6°F-19.2°C 84% Calm Calm -- 30.50 in1032.8 mb 0.00 in0.0 mm 0.00 in/hr0.0 mm/hr 0.00 in0.0 mm
01:58 AM 1.2°F-17.1°C -2.6°F-19.2°C 84% Calm Calm -- 30.50 in1032.8 mb 0.00 in0.0 mm 0.00 in/hr0.0 mm/hr 0.00 in0.0 mm
01:57 AM 1.2°F-17.1°C -2.6°F-19.2°C 84% Calm Calm -- 30.50 in1032.8 mb 0.00 in0.0 mm 0.00 in/hr0.0 mm/hr 0.00 in0.0 mm
01:56 AM 1.2°F-17.1°C -2.6°F-19.2°C 84% Calm Calm -- 30.50 in1032.8 mb 0.00 in0.0 mm 0.00 in/hr0.0 mm/hr 0.00 in0.0 mm
01:55 AM 1.2°F-17.1°C -2.2°F-19.0°C 85% Calm Calm -- 30.50 in1032.8 mb 0.00 in0.0 mm 0.00 in/hr0.0 mm/hr 0.00 in0.0 mm
01:54 AM 1.2°F-17.1°C -2.2°F-19.0°C 85% Calm Calm -- 30.50 in1032.8 mb 0.00 in0.0 mm 0.00 in/hr0.0 mm/hr 0.00 in0.0 mm
01:53 AM 1.2°F-17.1°C -2.2°F-19.0°C 85% Calm Calm -- 30.50 in1032.8 mb 0.00 in0.0 mm 0.00 in/hr0.0 mm/hr 0.00 in0.0 mm
01:52 AM 1.2°F-17.1°C -2.6°F-19.2°C 84% Calm Calm -- 30.50 in1032.8 mb 0.00 in0.0 mm 0.00 in/hr0.0 mm/hr 0.00 in0.0 mm
01:51 AM 1.2°F-17.1°C -2.6°F-19.2°C 84% Calm Calm -- 30.50 in1032.8 mb 0.00 in0.0 mm 0.00 in/hr0.0 mm/hr 0.00 in0.0 mm
01:50 AM 1.2°F-17.1°C -2.6°F-19.2°C 84% Calm Calm -- 30.50 in1032.8 mb 0.00 in0.0 mm 0.00 in/hr0.0 mm/hr 0.00 in0.0 mm
01:49 AM 1.2°F-17.1°C -2.6°F-19.2°C 84% Calm Calm -- 30.50 in1032.8 mb 0.00 in0.0 mm 0.00 in/hr0.0 mm/hr 0.00 in0.0 mm
01:48 AM 1.4°F-17.0°C -2.0°F-18.9°C 85% Calm Calm -- 30.50 in1032.8 mb 0.00 in0.0 mm 0.00 in/hr0.0 mm/hr 0.00 in0.0 mm
01:47 AM 1.4°F-17.0°C -2.0°F-18.9°C 85% Calm Calm -- 30.50 in1032.8 mb 0.00 in0.0 mm 0.00 in/hr0.0 mm/hr 0.00 in0.0 mm
01:46 AM 1.4°F-17.0°C -1.8°F-18.8°C 86% Calm Calm -- 30.50 in1032.8 mb 0.00 in0.0 mm 0.00 in/hr0.0 mm/hr 0.00 in0.0 mm
01:45 AM 1.4°F-17.0°C -2.0°F-18.9°C 85% Calm Calm -- 30.50 in1032.8 mb 0.00 in0.0 mm 0.00 in/hr0.0 mm/hr 0.00 in0.0 mm
01:44 AM 1.4°F-17.0°C -2.0°F-18.9°C 85% Calm Calm -- 30.50 in1032.8 mb 0.00 in0.0 mm 0.00 in/hr0.0 mm/hr 0.00 in0.0 mm
01:43 AM 1.2°F-17.1°C -2.2°F-19.0°C 85% Calm Calm -- 30.50 in1032.8 mb 0.00 in0.0 mm 0.00 in/hr0.0 mm/hr 0.00 in0.0 mm
01:42 AM 1.2°F-17.1°C -2.2°F-19.0°C 85% Calm Calm -- 30.50 in1032.8 mb 0.00 in0.0 mm 0.00 in/hr0.0 mm/hr 0.00 in0.0 mm
01:41 AM 1.2°F-17.1°C -2.2°F-19.0°C 85% Calm Calm -- 30.50 in1032.8 mb 0.00 in0.0 mm 0.00 in/hr0.0 mm/hr 0.00 in0.0 mm
01:40 AM 1.2°F-17.1°C -2.6°F-19.2°C 84% Calm Calm -- 30.50 in1032.8 mb 0.00 in0.0 mm 0.00 in/hr0.0 mm/hr 0.00 in0.0 mm
01:39 AM 1.2°F-17.1°C -2.6°F-19.2°C 84% Calm Calm -- 30.50 in1032.8 mb 0.00 in0.0 mm 0.00 in/hr0.0 mm/hr 0.00 in0.0 mm
01:38 AM 1.4°F-17.0°C -2.6°F-19.2°C 83% Calm Calm -- 30.50 in1032.8 mb 0.00 in0.0 mm 0.00 in/hr0.0 mm/hr 0.00 in0.0 mm
01:37 AM 1.4°F-17.0°C -2.6°F-19.2°C 83% Calm Calm -- 30.50 in1032.8 mb 0.00 in0.0 mm 0.00 in/hr0.0 mm/hr 0.00 in0.0 mm
01:36 AM 1.4°F-17.0°C -2.6°F-19.2°C 83% Calm Calm -- 30.50 in1032.8 mb 0.00 in0.0 mm 0.00 in/hr0.0 mm/hr 0.00 in0.0 mm
01:35 AM 1.6°F-16.9°C -2.4°F-19.1°C 83% Calm Calm -- 30.50 in1032.8 mb 0.00 in0.0 mm 0.00 in/hr0.0 mm/hr 0.00 in0.0 mm
01:34 AM 1.6°F-16.9°C -2.2°F-19.0°C 84% Calm Calm -- 30.50 in1032.8 mb 0.00 in0.0 mm 0.00 in/hr0.0 mm/hr 0.00 in0.0 mm
01:33 AM 1.6°F-16.9°C -2.2°F-19.0°C 84% Calm Calm -- 30.50 in1032.8 mb 0.00 in0.0 mm 0.00 in/hr0.0 mm/hr 0.00 in0.0 mm
01:32 AM 1.8°F-16.8°C -2.0°F-18.9°C 84% Calm Calm -- 30.50 in1032.8 mb 0.00 in0.0 mm 0.00 in/hr0.0 mm/hr 0.00 in0.0 mm
01:31 AM 1.8°F-16.8°C -2.0°F-18.9°C 84% Calm Calm -- 30.50 in1032.8 mb 0.00 in0.0 mm 0.00 in/hr0.0 mm/hr 0.00 in0.0 mm
01:30 AM 1.8°F-16.8°C -2.0°F-18.9°C 84% Calm Calm -- 30.50 in1032.8 mb 0.00 in0.0 mm 0.00 in/hr0.0 mm/hr 0.00 in0.0 mm
01:29 AM 1.8°F-16.8°C -2.0°F-18.9°C 84% Calm Calm -- 30.50 in1032.8 mb 0.00 in0.0 mm 0.00 in/hr0.0 mm/hr 0.00 in0.0 mm
01:28 AM 1.8°F-16.8°C -1.7°F-18.7°C 85% Calm Calm -- 30.50 in1032.8 mb 0.00 in0.0 mm 0.00 in/hr0.0 mm/hr 0.00 in0.0 mm
01:27 AM 1.8°F-16.8°C -2.0°F-18.9°C 84% Calm Calm -- 30.50 in1032.8 mb 0.00 in0.0 mm 0.00 in/hr0.0 mm/hr 0.00 in0.0 mm
01:26 AM 1.8°F-16.8°C -2.0°F-18.9°C 84% Calm Calm -- 30.50 in1032.8 mb 0.00 in0.0 mm 0.00 in/hr0.0 mm/hr 0.00 in0.0 mm
01:25 AM 1.6°F-16.9°C -1.8°F-18.8°C 85% Calm Calm -- 30.50 in1032.8 mb 0.00 in0.0 mm 0.00 in/hr0.0 mm/hr 0.00 in0.0 mm
01:24 AM 1.6°F-16.9°C -1.8°F-18.8°C 85% Calm Calm -- 30.50 in1032.8 mb 0.00 in0.0 mm 0.00 in/hr0.0 mm/hr 0.00 in0.0 mm
01:23 AM 1.6°F-16.9°C -2.2°F-19.0°C 84% Calm Calm -- 30.50 in1032.8 mb 0.00 in0.0 mm 0.00 in/hr0.0 mm/hr 0.00 in0.0 mm
01:22 AM 1.4°F-17.0°C -2.4°F-19.1°C 84% Calm Calm -- 30.50 in1032.8 mb 0.00 in0.0 mm 0.00 in/hr0.0 mm/hr 0.00 in0.0 mm
01:21 AM 1.4°F-17.0°C -2.4°F-19.1°C 84% Calm Calm -- 30.50 in1032.8 mb 0.00 in0.0 mm 0.00 in/hr0.0 mm/hr 0.00 in0.0 mm
01:20 AM 1.2°F-17.1°C -2.6°F-19.2°C 84% Calm Calm -- 30.50 in1032.8 mb 0.00 in0.0 mm 0.00 in/hr0.0 mm/hr 0.00 in0.0 mm
01:19 AM 1.2°F-17.1°C -2.7°F-19.3°C 83% Calm Calm -- 30.50 in1032.8 mb 0.00 in0.0 mm 0.00 in/hr0.0 mm/hr 0.00 in0.0 mm
01:18 AM 1.2°F-17.1°C -2.7°F-19.3°C 83% Calm Calm 0.9 mph1.4 kmh 30.50 in1032.8 mb 0.00 in0.0 mm 0.00 in/hr0.0 mm/hr 0.00 in0.0 mm
01:17 AM 1.2°F-17.1°C -2.9°F-19.4°C 82% Calm Calm 0.9 mph1.4 kmh 30.50 in1032.8 mb 0.00 in0.0 mm 0.00 in/hr0.0 mm/hr 0.00 in0.0 mm
01:16 AM 1.2°F-17.1°C -3.3°F-19.6°C 81% Calm Calm -- 30.50 in1032.8 mb 0.00 in0.0 mm 0.00 in/hr0.0 mm/hr 0.00 in0.0 mm
01:15 AM 1.6°F-16.9°C -2.6°F-19.2°C 82% Calm Calm -- 30.50 in1032.8 mb 0.00 in0.0 mm 0.00 in/hr0.0 mm/hr 0.00 in0.0 mm
01:14 AM 1.8°F-16.8°C -2.4°F-19.1°C 82% Calm Calm 0.9 mph1.4 kmh 30.50 in1032.8 mb 0.00 in0.0 mm 0.00 in/hr0.0 mm/hr 0.00 in0.0 mm
01:13 AM 1.8°F-16.8°C -2.4°F-19.1°C 82% Calm Calm -- 30.50 in1032.8 mb 0.00 in0.0 mm 0.00 in/hr0.0 mm/hr 0.00 in0.0 mm
01:12 AM 1.9°F-16.7°C -2.2°F-19.0°C 82% Calm Calm -- 30.50 in1032.8 mb 0.00 in0.0 mm 0.00 in/hr0.0 mm/hr 0.00 in0.0 mm
01:11 AM 1.9°F-16.7°C -2.2°F-19.0°C 82% Calm Calm -- 30.50 in1032.8 mb 0.00 in0.0 mm 0.00 in/hr0.0 mm/hr 0.00 in0.0 mm
01:10 AM 2.1°F-16.6°C -2.4°F-19.1°C 81% Calm Calm -- 30.50 in1032.8 mb 0.00 in0.0 mm 0.00 in/hr0.0 mm/hr 0.00 in0.0 mm
01:09 AM 2.3°F-16.5°C -1.8°F-18.8°C 82% Calm Calm -- 30.50 in1032.8 mb 0.00 in0.0 mm 0.00 in/hr0.0 mm/hr 0.00 in0.0 mm
01:08 AM 2.5°F-16.4°C -1.3°F-18.5°C 84% Calm Calm -- 30.50 in1032.8 mb 0.00 in0.0 mm 0.00 in/hr0.0 mm/hr 0.00 in0.0 mm
01:07 AM 2.7°F-16.3°C -1.1°F-18.4°C 84% Calm Calm -- 30.50 in1032.8 mb 0.00 in0.0 mm 0.00 in/hr0.0 mm/hr 0.00 in0.0 mm
01:06 AM 2.7°F-16.3°C -0.8°F-18.2°C 85% Calm Calm -- 30.50 in1032.8 mb 0.00 in0.0 mm 0.00 in/hr0.0 mm/hr 0.00 in0.0 mm
01:05 AM 2.5°F-16.4°C -0.9°F-18.3°C 85% Calm Calm -- 30.50 in1032.8 mb 0.00 in0.0 mm 0.00 in/hr0.0 mm/hr 0.00 in0.0 mm
01:04 AM 2.5°F-16.4°C -0.9°F-18.3°C 85% Calm Calm -- 30.50 in1032.8 mb 0.00 in0.0 mm 0.00 in/hr0.0 mm/hr 0.00 in0.0 mm
01:03 AM 2.5°F-16.4°C -0.9°F-18.3°C 85% Calm Calm -- 30.50 in1032.8 mb 0.00 in0.0 mm 0.00 in/hr0.0 mm/hr 0.00 in0.0 mm
01:02 AM 2.1°F-16.6°C -1.3°F-18.5°C 85% Calm Calm -- 30.50 in1032.8 mb 0.00 in0.0 mm 0.00 in/hr0.0 mm/hr 0.00 in0.0 mm
01:01 AM 2.1°F-16.6°C -1.7°F-18.7°C 84% Calm Calm -- 30.50 in1032.8 mb 0.00 in0.0 mm 0.00 in/hr0.0 mm/hr 0.00 in0.0 mm
01:00 AM 1.9°F-16.7°C -2.0°F-18.9°C 83% Calm Calm -- 30.50 in1032.8 mb 0.00 in0.0 mm 0.00 in/hr0.0 mm/hr 0.00 in0.0 mm
12:59 AM 1.8°F-16.8°C -2.2°F-19.0°C 83% Calm Calm -- 30.50 in1032.8 mb 0.00 in0.0 mm 0.00 in/hr0.0 mm/hr 0.00 in0.0 mm
12:58 AM 1.8°F-16.8°C -2.4°F-19.1°C 82% Calm Calm -- 30.50 in1032.8 mb 0.00 in0.0 mm 0.00 in/hr0.0 mm/hr 0.00 in0.0 mm
12:57 AM 1.8°F-16.8°C -2.4°F-19.1°C 82% Calm Calm 2.0 mph3.2 kmh 30.50 in1032.8 mb 0.00 in0.0 mm 0.00 in/hr0.0 mm/hr 0.00 in0.0 mm
12:56 AM 1.8°F-16.8°C -2.4°F-19.1°C 82% Calm Calm -- 30.50 in1032.8 mb 0.00 in0.0 mm 0.00 in/hr0.0 mm/hr 0.00 in0.0 mm
12:55 AM 1.8°F-16.8°C -2.4°F-19.1°C 82% Calm Calm -- 30.50 in1032.8 mb 0.00 in0.0 mm 0.00 in/hr0.0 mm/hr 0.00 in0.0 mm
12:54 AM 1.8°F-16.8°C -2.4°F-19.1°C 82% Calm Calm -- 30.50 in1032.8 mb 0.00 in0.0 mm 0.00 in/hr0.0 mm/hr 0.00 in0.0 mm
12:53 AM 1.8°F-16.8°C -2.4°F-19.1°C 82% Calm Calm -- 30.50 in1032.8 mb 0.00 in0.0 mm 0.00 in/hr0.0 mm/hr 0.00 in0.0 mm
12:52 AM 1.8°F-16.8°C -2.2°F-19.0°C 83% Calm Calm 0.9 mph1.4 kmh 30.50 in1032.8 mb 0.00 in0.0 mm 0.00 in/hr0.0 mm/hr 0.00 in0.0 mm
12:51 AM 1.8°F-16.8°C -2.0°F-18.9°C 84% 0.9 mph S1.4 kmh S 0.9 mph1.4 kmh 30.50 in1032.8 mb 0.00 in0.0 mm 0.00 in/hr0.0 mm/hr 0.00 in0.0 mm
12:50 AM 1.8°F-16.8°C -2.0°F-18.9°C 84% 0.9 mph S1.4 kmh S -- 30.50 in1032.8 mb 0.00 in0.0 mm 0.00 in/hr0.0 mm/hr 0.00 in0.0 mm
12:49 AM 1.8°F-16.8°C -1.7°F-18.7°C 85% 0.9 mph S1.4 kmh S 0.9 mph1.4 kmh 30.50 in1032.8 mb 0.00 in0.0 mm 0.00 in/hr0.0 mm/hr 0.00 in0.0 mm
12:48 AM 1.6°F-16.9°C -1.8°F-18.8°C 85% 0.9 mph S1.4 kmh S 0.9 mph1.4 kmh 30.50 in1032.8 mb 0.00 in0.0 mm 0.00 in/hr0.0 mm/hr 0.00 in0.0 mm
12:47 AM 1.4°F-17.0°C -2.4°F-19.1°C 84% 0.9 mph S1.4 kmh S -- 30.50 in1032.8 mb 0.00 in0.0 mm 0.00 in/hr0.0 mm/hr 0.00 in0.0 mm
12:46 AM 1.2°F-17.1°C -2.6°F-19.2°C 84% 0.9 mph S1.4 kmh S -- 30.50 in1032.8 mb 0.00 in0.0 mm 0.00 in/hr0.0 mm/hr 0.00 in0.0 mm
12:45 AM 1.2°F-17.1°C -2.7°F-19.3°C 83% 0.9 mph S1.4 kmh S -- 30.50 in1032.8 mb 0.00 in0.0 mm 0.00 in/hr0.0 mm/hr 0.00 in0.0 mm
12:44 AM 1.2°F-17.1°C -2.7°F-19.3°C 83% 0.9 mph S1.4 kmh S -- 30.50 in1032.8 mb 0.00 in0.0 mm 0.00 in/hr0.0 mm/hr 0.00 in0.0 mm
12:43 AM 1.2°F-17.1°C -2.9°F-19.4°C 82% 0.9 mph S1.4 kmh S 0.9 mph1.4 kmh 30.50 in1032.8 mb 0.00 in0.0 mm 0.00 in/hr0.0 mm/hr 0.00 in0.0 mm
12:42 AM 1.2°F-17.1°C -2.9°F-19.4°C 82% 0.9 mph S1.4 kmh S 4.0 mph6.4 kmh 30.50 in1032.8 mb 0.00 in0.0 mm 0.00 in/hr0.0 mm/hr 0.00 in0.0 mm
12:41 AM 1.4°F-17.0°C -2.6°F-19.2°C 83% 0.9 mph S1.4 kmh S 4.0 mph6.4 kmh 30.50 in1032.8 mb 0.00 in0.0 mm 0.00 in/hr0.0 mm/hr 0.00 in0.0 mm
12:40 AM 1.4°F-17.0°C -2.0°F-18.9°C 85% 0.9 mph S1.4 kmh S 4.0 mph6.4 kmh 30.50 in1032.8 mb 0.00 in0.0 mm 0.00 in/hr0.0 mm/hr 0.00 in0.0 mm
12:39 AM 1.2°F-17.1°C -2.7°F-19.3°C 83% 0.9 mph S1.4 kmh S -- 30.50 in1032.8 mb 0.00 in0.0 mm 0.00 in/hr0.0 mm/hr 0.00 in0.0 mm
12:38 AM 1.0°F-17.2°C -3.1°F-19.5°C 82% 0.9 mph S1.4 kmh S -- 30.50 in1032.8 mb 0.00 in0.0 mm 0.00 in/hr0.0 mm/hr 0.00 in0.0 mm
12:37 AM 1.0°F-17.2°C -3.6°F-19.8°C 80% 0.9 mph S1.4 kmh S -- 30.50 in1032.8 mb 0.00 in0.0 mm 0.00 in/hr0.0 mm/hr 0.00 in0.0 mm
12:36 AM 1.2°F-17.1°C -3.8°F-19.9°C 79% 0.9 mph S1.4 kmh S -- 30.50 in1032.8 mb 0.00 in0.0 mm 0.00 in/hr0.0 mm/hr 0.00 in0.0 mm
12:35 AM 1.6°F-16.9°C -3.5°F-19.7°C 79% Calm Calm 2.9 mph4.7 kmh 30.50 in1032.8 mb 0.00 in0.0 mm 0.00 in/hr0.0 mm/hr 0.00 in0.0 mm
12:34 AM 2.1°F-16.6°C -2.4°F-19.1°C 81% Calm Calm 4.0 mph6.4 kmh 30.50 in1032.8 mb 0.00 in0.0 mm 0.00 in/hr0.0 mm/hr 0.00 in0.0 mm
12:33 AM 2.3°F-16.5°C -1.7°F-18.7°C 83% Calm Calm 2.9 mph4.7 kmh 30.50 in1032.8 mb 0.00 in0.0 mm 0.00 in/hr0.0 mm/hr 0.00 in0.0 mm
12:32 AM 2.3°F-16.5°C -1.7°F-18.7°C 83% Calm Calm -- 30.50 in1032.8 mb 0.00 in0.0 mm 0.00 in/hr0.0 mm/hr 0.00 in0.0 mm
12:31 AM 2.3°F-16.5°C -1.8°F-18.8°C 82% Calm Calm -- 30.50 in1032.8 mb 0.00 in0.0 mm 0.00 in/hr0.0 mm/hr 0.00 in0.0 mm
12:30 AM 2.3°F-16.5°C -1.8°F-18.8°C 82% Calm Calm -- 30.50 in1032.8 mb 0.00 in0.0 mm 0.00 in/hr0.0 mm/hr 0.00 in0.0 mm
12:29 AM 2.5°F-16.4°C -1.5°F-18.6°C 83% Calm Calm -- 30.50 in1032.8 mb 0.00 in0.0 mm 0.00 in/hr0.0 mm/hr 0.00 in0.0 mm
12:28 AM 2.5°F-16.4°C -1.3°F-18.5°C 84% Calm Calm -- 30.50 in1032.8 mb 0.00 in0.0 mm 0.00 in/hr0.0 mm/hr 0.00 in0.0 mm
12:27 AM 2.5°F-16.4°C -1.3°F-18.5°C 84% Calm Calm -- 30.50 in1032.8 mb 0.00 in0.0 mm 0.00 in/hr0.0 mm/hr 0.00 in0.0 mm
12:26 AM 2.3°F-16.5°C -1.7°F-18.7°C 83% Calm Calm -- 30.50 in1032.8 mb 0.00 in0.0 mm 0.00 in/hr0.0 mm/hr 0.00 in0.0 mm
12:25 AM 2.3°F-16.5°C -1.7°F-18.7°C 83% Calm Calm -- 30.50 in1032.8 mb 0.00 in0.0 mm 0.00 in/hr0.0 mm/hr 0.00 in0.0 mm
12:24 AM 2.3°F-16.5°C -1.7°F-18.7°C 83% Calm Calm -- 30.50 in1032.8 mb 0.00 in0.0 mm 0.00 in/hr0.0 mm/hr 0.00 in0.0 mm
12:23 AM 2.3°F-16.5°C -1.5°F-18.6°C 84% Calm Calm -- 30.50 in1032.8 mb 0.00 in0.0 mm 0.00 in/hr0.0 mm/hr 0.00 in0.0 mm
12:22 AM 2.3°F-16.5°C -1.5°F-18.6°C 84% Calm Calm -- 30.50 in1032.8 mb 0.00 in0.0 mm 0.00 in/hr0.0 mm/hr 0.00 in0.0 mm
12:21 AM 2.1°F-16.6°C -1.8°F-18.8°C 83% Calm Calm -- 30.50 in1032.8 mb 0.00 in0.0 mm 0.00 in/hr0.0 mm/hr 0.00 in0.0 mm
12:20 AM 2.1°F-16.6°C -1.8°F-18.8°C 83% Calm Calm -- 30.50 in1032.8 mb 0.00 in0.0 mm 0.00 in/hr0.0 mm/hr 0.00 in0.0 mm
12:19 AM 2.1°F-16.6°C -2.6°F-19.2°C 80% Calm Calm -- 30.50 in1032.8 mb 0.00 in0.0 mm 0.00 in/hr0.0 mm/hr 0.00 in0.0 mm
12:18 AM 2.1°F-16.6°C -2.9°F-19.4°C 79% Calm Calm -- 30.50 in1032.8 mb 0.00 in0.0 mm 0.00 in/hr0.0 mm/hr 0.00 in0.0 mm
12:17 AM 2.5°F-16.4°C -2.7°F-19.3°C 78% Calm Calm -- 30.50 in1032.8 mb 0.00 in0.0 mm 0.00 in/hr0.0 mm/hr 0.00 in0.0 mm
12:16 AM 2.7°F-16.3°C -2.6°F-19.2°C 78% Calm Calm -- 30.50 in1032.8 mb 0.00 in0.0 mm 0.00 in/hr0.0 mm/hr 0.00 in0.0 mm
12:15 AM 3.0°F-16.1°C -2.0°F-18.9°C 79% Calm Calm -- 30.50 in1032.8 mb 0.00 in0.0 mm 0.00 in/hr0.0 mm/hr 0.00 in0.0 mm
12:14 AM 3.6°F-15.8°C -1.3°F-18.5°C 80% Calm Calm 0.9 mph1.4 kmh 30.50 in1032.8 mb 0.00 in0.0 mm 0.00 in/hr0.0 mm/hr 0.00 in0.0 mm
12:13 AM 3.7°F-15.7°C -0.2°F-17.9°C 83% Calm Calm -- 30.50 in1032.8 mb 0.00 in0.0 mm 0.00 in/hr0.0 mm/hr 0.00 in0.0 mm
12:12 AM 3.7°F-15.7°C -0.2°F-17.9°C 83% Calm Calm -- 30.50 in1032.8 mb 0.00 in0.0 mm 0.00 in/hr0.0 mm/hr 0.00 in0.0 mm
12:11 AM 3.9°F-15.6°C 0.0°F-17.8°C 83% Calm Calm -- 30.50 in1032.8 mb 0.00 in0.0 mm 0.00 in/hr0.0 mm/hr 0.00 in0.0 mm
12:10 AM 3.9°F-15.6°C 0.0°F-17.8°C 83% Calm Calm -- 30.50 in1032.8 mb 0.00 in0.0 mm 0.00 in/hr0.0 mm/hr 0.00 in0.0 mm
12:09 AM 3.9°F-15.6°C 0.0°F-17.8°C 83% Calm Calm -- 30.50 in1032.8 mb 0.00 in0.0 mm 0.00 in/hr0.0 mm/hr 0.00 in0.0 mm
12:08 AM 3.9°F-15.6°C 0.0°F-17.8°C 83% Calm Calm -- 30.50 in1032.8 mb 0.00 in0.0 mm 0.00 in/hr0.0 mm/hr 0.00 in0.0 mm
12:07 AM 3.9°F-15.6°C -0.4°F-18.0°C 82% Calm Calm -- 30.50 in1032.8 mb 0.00 in0.0 mm 0.00 in/hr0.0 mm/hr 0.00 in0.0 mm
12:06 AM 3.9°F-15.6°C -0.6°F-18.1°C 81% Calm Calm -- 30.50 in1032.8 mb 0.00 in0.0 mm 0.00 in/hr0.0 mm/hr 0.00 in0.0 mm
12:05 AM 3.9°F-15.6°C -0.6°F-18.1°C 81% Calm Calm -- 30.50 in1032.8 mb 0.00 in0.0 mm 0.00 in/hr0.0 mm/hr 0.00 in0.0 mm
12:04 AM 4.1°F-15.5°C -0.4°F-18.0°C 81% Calm Calm -- 30.50 in1032.8 mb 0.00 in0.0 mm 0.00 in/hr0.0 mm/hr 0.00 in0.0 mm
12:03 AM 4.3°F-15.4°C 0.0°F-17.8°C 82% Calm Calm -- 30.50 in1032.8 mb 0.00 in0.0 mm 0.00 in/hr0.0 mm/hr 0.00 in0.0 mm
12:02 AM 4.3°F-15.4°C 0.0°F-17.8°C 82% Calm Calm -- 30.50 in1032.8 mb 0.00 in0.0 mm 0.00 in/hr0.0 mm/hr 0.00 in0.0 mm
12:01 AM 4.5°F-15.3°C 0.5°F-17.5°C 83% Calm Calm -- 30.50 in1032.8 mb 0.00 in0.0 mm 0.00 in/hr0.0 mm/hr 0.00 in0.0 mm
12:00 AM 4.3°F-15.4°C 0.5°F-17.5°C 84% Calm Calm -- 30.50 in1032.8 mb 0.00 in0.0 mm 0.00 in/hr0.0 mm/hr 0.00 in0.0 mm
WeatherForYou.com, LLC is not responsible for any damages or problems caused by this service. Current weather conditions are obtained from the closest station including government and personal stations which may have varying degrees of accuracy. Weather forecasts are derived from the NOAA NDFD and obtained through HAMweather's Aeris Weather API. Like all things, this site belongs to Jesus Christ... He just trusts me to maintain it. If you have any questions or comments email webmaster@weatherforyou.com

Copyright © 2015, WeatherForYou.com LLC. All rights reserved.